Terminal Aerodrome Forecast
Issued by NWS Mt. Holly, NJ

Home | Current Version | Previous Version | Text Only | Print | Product List | Glossary On
Versions: 1 2 3 4 5 6 7 8 9 10 11 12 13 14
248
FTUS41 KPHI 281139
TAFTTN
TAF
KTTN 281139Z 2812/2912 01006KT P6SM SCT200
     FM281500 04010KT P6SM SCT010 BKN025
     FM281800 07012G19KT P6SM VCSH BKN015
     FM282200 08014G23KT 6SM -DZ OVC010
     FM290200 06013G19KT 6SM -DZRA BKN008 OVC020=

USA.gov is the U.S. government's official web portal to all federal, state and local government web resources and services.